Wales, North Dakota
Current Conditions -  °F | °C
As of 4:35 PM on Wednesday 22 Oct 2014 (Local Time) from KD55 Reporting Station
Light Rain Light Rain  
Wind Chill: 54°   Ceiling: 5000
Heat Index: 54°   Visibility: 6mi
Dew Point: 50°   Wind: 14mph
Humidity: 88%   Direction: 210°SSW
Pressure: 29.76"   Gusts: NA
Location:  48.9°N, 98.6°W
Report Text: KD55 222135Z AUTO 21012KT 6SM -RA FEW001 SCT021 OVC050 12/10 A2976 RMK AO2
Loading
Personal Weather Stations






























Interactive Weather Map
Tropical Storm Tracking
New forecast layout! Learn more

10-Day Weather Forecast

Advertisements
Track Severe Weather on mobile